sensor_id;sensor_type;location;lat;lon;timestamp;pressure;altitude;pressure_sealevel;temperature;humidity
61318;BME280;47201;40.428;-8.436;2023-05-07T00:01:05;100951.50;;;14.76;100.00
61318;BME280;47201;40.428;-8.436;2023-05-07T00:03:06;100953.34;;;14.69;100.00
61318;BME280;47201;40.428;-8.436;2023-05-07T00:05:07;100956.88;;;14.65;100.00
61318;BME280;47201;40.428;-8.436;2023-05-07T00:07:07;100955.16;;;14.63;100.00
61318;BME280;47201;40.428;-8.436;2023-05-07T00:09:08;100953.44;;;14.60;100.00
61318;BME280;47201;40.428;-8.436;2023-05-07T00:11:11;100951.69;;;14.60;100.00
61318;BME280;47201;40.428;-8.436;2023-05-07T00:13:12;100955.25;;;14.55;100.00
61318;BME280;47201;40.428;-8.436;2023-05-07T00:15:12;100960.59;;;14.52;100.00
61318;BME280;47201;40.428;-8.436;2023-05-07T00:17:13;100957.13;;;14.47;100.00
61318;BME280;47201;40.428;-8.436;2023-05-07T00:19:13;100960.69;;;14.42;100.00
61318;BME280;47201;40.428;-8.436;2023-05-07T00:21:14;100959.03;;;14.37;100.00
61318;BME280;47201;40.428;-8.436;2023-05-07T00:23:14;100961.72;;;14.31;100.00
61318;BME280;47201;40.428;-8.436;2023-05-07T00:25:15;100950.28;;;14.33;100.00
61318;BME280;47201;40.428;-8.436;2023-05-07T00:27:15;100952.03;;;14.34;100.00
61318;BME280;47201;40.428;-8.436;2023-05-07T00:29:16;100944.09;;;14.37;100.00
61318;BME280;47201;40.428;-8.436;2023-05-07T00:31:16;100936.19;;;14.40;100.00
61318;BME280;47201;40.428;-8.436;2023-05-07T00:33:17;100941.44;;;14.40;100.00
61318;BME280;47201;40.428;-8.436;2023-05-07T00:35:17;100933.59;;;14.36;100.00
61318;BME280;47201;40.428;-8.436;2023-05-07T00:37:18;100938.94;;;14.33;100.00
61318;BME280;47201;40.428;-8.436;2023-05-07T00:39:18;100942.44;;;14.30;100.00
61318;BME280;47201;40.428;-8.436;2023-05-07T00:41:19;100946.91;;;14.25;100.00
61318;BME280;47201;40.428;-8.436;2023-05-07T00:43:20;100944.28;;;14.23;100.00
61318;BME280;47201;40.428;-8.436;2023-05-07T00:45:20;100949.56;;;14.20;100.00
61318;BME280;47201;40.428;-8.436;2023-05-07T00:47:21;100950.50;;;14.18;100.00
61318;BME280;47201;40.428;-8.436;2023-05-07T00:49:22;100949.63;;;14.17;100.00
61318;BME280;47201;40.428;-8.436;2023-05-07T00:51:23;100943.41;;;14.23;100.00
61318;BME280;47201;40.428;-8.436;2023-05-07T00:53:24;100941.69;;;14.20;100.00
61318;BME280;47201;40.428;-8.436;2023-05-07T00:55:25;100947.63;;;14.36;100.00
61318;BME280;47201;40.428;-8.436;2023-05-07T00:57:26;100952.88;;;14.38;100.00
61318;BME280;47201;40.428;-8.436;2023-05-07T00:59:26;100960.78;;;14.35;100.00
61318;BME280;47201;40.428;-8.436;2023-05-07T01:01:27;100963.34;;;14.41;100.00
61318;BME280;47201;40.428;-8.436;2023-05-07T01:03:28;100967.72;;;14.43;100.00
61318;BME280;47201;40.428;-8.436;2023-05-07T01:05:28;100962.50;;;14.39;100.00
61318;BME280;47201;40.428;-8.436;2023-05-07T01:07:29;100959.06;;;14.32;100.00
61318;BME280;47201;40.428;-8.436;2023-05-07T01:09:30;100961.69;;;14.32;100.00
61318;BME280;47201;40.428;-8.436;2023-05-07T01:11:31;100959.13;;;14.27;100.00
61318;BME280;47201;40.428;-8.436;2023-05-07T01:13:31;100953.06;;;14.22;100.00
61318;BME280;47201;40.428;-8.436;2023-05-07T01:15:32;100952.25;;;14.16;100.00
61318;BME280;47201;40.428;-8.436;2023-05-07T01:17:33;100960.25;;;14.08;100.00
61318;BME280;47201;40.428;-8.436;2023-05-07T01:19:34;100947.97;;;14.10;100.00
61318;BME280;47201;40.428;-8.436;2023-05-07T01:21:35;100952.31;;;14.12;100.00
61318;BME280;47201;40.428;-8.436;2023-05-07T01:23:41;100951.41;;;14.15;100.00
61318;BME280;47201;40.428;-8.436;2023-05-07T01:25:42;100952.34;;;14.11;100.00
61318;BME280;47201;40.428;-8.436;2023-05-07T01:27:44;100949.63;;;14.16;100.00
61318;BME280;47201;40.428;-8.436;2023-05-07T01:29:45;100942.59;;;14.18;100.00
61318;BME280;47201;40.428;-8.436;2023-05-07T01:31:45;100942.59;;;14.18;100.00
61318;BME280;47201;40.428;-8.436;2023-05-07T01:33:48;100942.63;;;14.16;100.00
61318;BME280;47201;40.428;-8.436;2023-05-07T01:35:50;100935.56;;;14.21;100.00
61318;BME280;47201;40.428;-8.436;2023-05-07T01:37:51;100939.97;;;14.18;100.00
61318;BME280;47201;40.428;-8.436;2023-05-07T01:39:53;100941.81;;;14.12;100.00
61318;BME280;47201;40.428;-8.436;2023-05-07T01:41:54;100942.72;;;14.08;100.00
61318;BME280;47201;40.428;-8.436;2023-05-07T01:43:57;100934.97;;;13.99;100.00
61318;BME280;47201;40.428;-8.436;2023-05-07T01:45:59;100928.88;;;13.94;100.00
61318;BME280;47201;40.428;-8.436;2023-05-07T01:48:01;100933.31;;;13.89;100.00
61318;BME280;47201;40.428;-8.436;2023-05-07T01:50:02;100935.13;;;13.82;100.00
61318;BME280;47201;40.428;-8.436;2023-05-07T01:52:03;100936.94;;;13.78;100.00
61318;BME280;47201;40.428;-8.436;2023-05-07T01:54:04;100924.72;;;13.74;100.00
61318;BME280;47201;40.428;-8.436;2023-05-07T01:56:05;100926.41;;;13.82;100.00
61318;BME280;47201;40.428;-8.436;2023-05-07T01:58:07;100926.31;;;13.88;100.00
61318;BME280;47201;40.428;-8.436;2023-05-07T02:00:07;100922.78;;;13.92;100.00
61318;BME280;47201;40.428;-8.436;2023-05-07T02:02:15;100927.97;;;13.98;100.00
61318;BME280;47201;40.428;-8.436;2023-05-07T02:04:18;100924.44;;;13.99;100.00
61318;BME280;47201;40.428;-8.436;2023-05-07T02:06:19;100928.88;;;13.94;100.00
61318;BME280;47201;40.428;-8.436;2023-05-07T02:08:19;100921.03;;;13.89;100.00
61318;BME280;47201;40.428;-8.436;2023-05-07T02:10:20;100925.47;;;13.86;100.00
61318;BME280;47201;40.428;-8.436;2023-05-07T02:12:21;100927.22;;;13.85;100.00
61318;BME280;47201;40.428;-8.436;2023-05-07T02:14:21;100922.09;;;13.77;100.00
61318;BME280;47201;40.428;-8.436;2023-05-07T02:16:22;100917.69;;;13.75;100.00
61318;BME280;47201;40.428;-8.436;2023-05-07T02:18:25;100925.63;;;13.72;100.00
61318;BME280;47201;40.428;-8.436;2023-05-07T02:20:26;100923.91;;;13.69;100.00
61318;BME280;47201;40.428;-8.436;2023-05-07T02:22:26;100917.88;;;13.61;100.00
61318;BME280;47201;40.428;-8.436;2023-05-07T02:24:27;100921.44;;;13.55;100.00
61318;BME280;47201;40.428;-8.436;2023-05-07T02:26:27;100917.81;;;13.64;100.00
61318;BME280;47201;40.428;-8.436;2023-05-07T02:28:28;100919.56;;;13.68;100.00
61318;BME280;47201;40.428;-8.436;2023-05-07T02:30:33;100930.13;;;13.62;100.00
61318;BME280;47201;40.428;-8.436;2023-05-07T02:32:34;100924.09;;;13.54;100.00
61318;BME280;47201;40.428;-8.436;2023-05-07T02:34:34;100921.47;;;13.51;100.00
61318;BME280;47201;40.428;-8.436;2023-05-07T02:36:35;100932.03;;;13.46;100.00
61318;BME280;47201;40.428;-8.436;2023-05-07T02:38:40;100924.13;;;13.49;100.00
61318;BME280;47201;40.428;-8.436;2023-05-07T02:40:41;100929.34;;;13.51;100.00
61318;BME280;47201;40.428;-8.436;2023-05-07T02:42:42;100924.03;;;13.58;100.00
61318;BME280;47201;40.428;-8.436;2023-05-07T02:44:42;100922.28;;;13.57;100.00
61318;BME280;47201;40.428;-8.436;2023-05-07T02:46:43;100929.34;;;13.51;100.00
61318;BME280;47201;40.428;-8.436;2023-05-07T02:48:46;100932.06;;;13.41;100.00
61318;BME280;47201;40.428;-8.436;2023-05-07T02:50:46;100924.25;;;13.33;100.00
61318;BME280;47201;40.428;-8.436;2023-05-07T02:52:48;100921.66;;;13.26;100.00
61318;BME280;47201;40.428;-8.436;2023-05-07T02:54:49;100920.91;;;13.14;100.00
61318;BME280;47201;40.428;-8.436;2023-05-07T02:56:49;100920.09;;;13.09;100.00
61318;BME280;47201;40.428;-8.436;2023-05-07T02:58:50;100924.50;;;13.02;100.00
61318;BME280;47201;40.428;-8.436;2023-05-07T03:00:52;100931.53;;;12.99;100.00
61318;BME280;47201;40.428;-8.436;2023-05-07T03:03:13;100921.06;;;12.97;100.00
61318;BME280;47201;40.428;-8.436;2023-05-07T03:05:14;100913.22;;;12.93;100.00
61318;BME280;47201;40.428;-8.436;2023-05-07T03:07:15;100926.38;;;12.88;100.00
61318;BME280;47201;40.428;-8.436;2023-05-07T03:09:15;100931.66;;;12.82;100.00
61318;BME280;47201;40.428;-8.436;2023-05-07T03:11:16;100932.59;;;12.75;100.00
61318;BME280;47201;40.428;-8.436;2023-05-07T03:13:17;100929.16;;;12.66;100.00
61318;BME280;47201;40.428;-8.436;2023-05-07T03:15:18;100932.56;;;12.76;100.00
61318;BME280;47201;40.428;-8.436;2023-05-07T03:17:18;100928.97;;;12.93;100.00
61318;BME280;47201;40.428;-8.436;2023-05-07T03:19:19;100929.84;;;12.95;100.00
61318;BME280;47201;40.428;-8.436;2023-05-07T03:21:19;100927.19;;;12.96;100.00
61318;BME280;47201;40.428;-8.436;2023-05-07T03:23:20;100927.19;;;12.96;100.00
61318;BME280;47201;40.428;-8.436;2023-05-07T03:25:20;100927.22;;;12.92;100.00
61318;BME280;47201;40.428;-8.436;2023-05-07T03:27:21;100930.78;;;12.84;100.00
61318;BME280;47201;40.428;-8.436;2023-05-07T03:29:23;100926.44;;;12.80;100.00
61318;BME280;47201;40.428;-8.436;2023-05-07T03:31:23;100930.78;;;12.81;100.00
61318;BME280;47201;40.428;-8.436;2023-05-07T03:33:24;100933.28;;;12.97;100.00
61318;BME280;47201;40.428;-8.436;2023-05-07T03:35:25;100938.56;;;12.98;100.00
61318;BME280;47201;40.428;-8.436;2023-05-07T03:37:26;100940.34;;;12.92;100.00
61318;BME280;47201;40.428;-8.436;2023-05-07T03:39:28;100946.56;;;12.75;100.00
61318;BME280;47201;40.428;-8.436;2023-05-07T03:41:28;100954.56;;;12.53;100.00
61318;BME280;47201;40.428;-8.436;2023-05-07T03:43:29;100947.66;;;12.37;100.00
61318;BME280;47201;40.428;-8.436;2023-05-07T03:45:37;100958.22;;;12.28;100.00
61318;BME280;47201;40.428;-8.436;2023-05-07T03:47:45;100965.22;;;12.22;100.00
61318;BME280;47201;40.428;-8.436;2023-05-07T03:49:50;100964.31;;;12.28;100.00
61318;BME280;47201;40.428;-8.436;2023-05-07T03:51:53;100958.09;;;12.46;100.00
61318;BME280;47201;40.428;-8.436;2023-05-07T03:53:53;100959.78;;;12.58;100.00
61318;BME280;47201;40.428;-8.436;2023-05-07T03:55:55;100961.53;;;12.56;100.00
61318;BME280;47201;40.428;-8.436;2023-05-07T03:57:56;100962.47;;;12.52;100.00
61318;BME280;47201;40.428;-8.436;2023-05-07T03:59:59;100958.09;;;12.51;100.00
61318;BME280;47201;40.428;-8.436;2023-05-07T04:02:00;100953.75;;;12.48;100.00
61318;BME280;47201;40.428;-8.436;2023-05-07T04:04:04;100953.75;;;12.45;100.00
61318;BME280;47201;40.428;-8.436;2023-05-07T04:06:06;100950.22;;;12.48;100.00
61318;BME280;47201;40.428;-8.436;2023-05-07T04:08:11;100957.22;;;12.49;100.00
61318;BME280;47201;40.428;-8.436;2023-05-07T04:10:15;100960.69;;;12.56;100.00
61318;BME280;47201;40.428;-8.436;2023-05-07T04:12:18;100961.56;;;12.58;100.00
61318;BME280;47201;40.428;-8.436;2023-05-07T04:14:18;100961.56;;;12.54;100.00
61318;BME280;47201;40.428;-8.436;2023-05-07T04:16:19;100958.97;;;12.53;100.00
61318;BME280;47201;40.428;-8.436;2023-05-07T04:18:20;100957.19;;;12.53;100.00
61318;BME280;47201;40.428;-8.436;2023-05-07T04:20:22;100952.00;;;12.44;100.00
61318;BME280;47201;40.428;-8.436;2023-05-07T04:22:29;100945.88;;;12.45;100.00
61318;BME280;47201;40.428;-8.436;2023-05-07T04:24:33;100952.81;;;12.56;100.00
61318;BME280;47201;40.428;-8.436;2023-05-07T04:26:35;100951.03;;;12.61;100.00
61318;BME280;47201;40.428;-8.436;2023-05-07T04:28:35;100944.88;;;12.66;100.00
61318;BME280;47201;40.428;-8.436;2023-05-07T04:30:36;100950.16;;;12.65;100.00
61318;BME280;47201;40.428;-8.436;2023-05-07T04:32:39;100942.19;;;12.74;100.00
61318;BME280;47201;40.428;-8.436;2023-05-07T04:34:40;100940.41;;;12.81;100.00
61318;BME280;47201;40.428;-8.436;2023-05-07T04:36:41;100939.56;;;12.80;100.00
61318;BME280;47201;40.428;-8.436;2023-05-07T04:38:45;100933.47;;;12.77;100.00
61318;BME280;47201;40.428;-8.436;2023-05-07T04:40:46;100932.63;;;12.73;100.00
61318;BME280;47201;40.428;-8.436;2023-05-07T04:42:51;100931.78;;;12.65;100.00
61318;BME280;47201;40.428;-8.436;2023-05-07T04:44:53;100931.81;;;12.57;100.00
61318;BME280;47201;40.428;-8.436;2023-05-07T04:46:56;100940.59;;;12.51;100.00
61318;BME280;47201;40.428;-8.436;2023-05-07T04:48:57;100940.63;;;12.45;100.00
61318;BME280;47201;40.428;-8.436;2023-05-07T04:50:57;100941.56;;;12.40;100.00
61318;BME280;47201;40.428;-8.436;2023-05-07T04:52:58;100943.31;;;12.33;100.00
61318;BME280;47201;40.428;-8.436;2023-05-07T04:54:59;100936.34;;;12.27;100.00
61318;BME280;47201;40.428;-8.436;2023-05-07T04:57:03;100944.25;;;12.26;100.00
61318;BME280;47201;40.428;-8.436;2023-05-07T04:59:04;100943.41;;;12.20;100.00
61318;BME280;47201;40.428;-8.436;2023-05-07T05:01:05;100940.78;;;12.13;100.00
61318;BME280;47201;40.428;-8.436;2023-05-07T05:03:06;100946.91;;;12.07;100.00
61318;BME280;47201;40.428;-8.436;2023-05-07T05:05:07;100939.97;;;12.00;100.00
61318;BME280;47201;40.428;-8.436;2023-05-07T05:07:08;100941.72;;;11.95;100.00
61318;BME280;47201;40.428;-8.436;2023-05-07T05:09:11;100949.56;;;11.91;100.00
61318;BME280;47201;40.428;-8.436;2023-05-07T05:11:14;100945.19;;;11.94;100.00
61318;BME280;47201;40.428;-8.436;2023-05-07T05:13:15;100958.31;;;11.92;100.00
61318;BME280;47201;40.428;-8.436;2023-05-07T05:15:16;100953.06;;;12.08;100.00
61318;BME280;47201;40.428;-8.436;2023-05-07T05:17:17;100946.03;;;12.13;100.00
61318;BME280;47201;40.428;-8.436;2023-05-07T05:19:17;100953.88;;;12.17;100.00
61318;BME280;47201;40.428;-8.436;2023-05-07T05:21:18;100955.59;;;12.21;100.00
61318;BME280;47201;40.428;-8.436;2023-05-07T05:23:21;100957.38;;;12.16;100.00
61318;BME280;47201;40.428;-8.436;2023-05-07T05:25:22;100959.16;;;12.03;100.00
61318;BME280;47201;40.428;-8.436;2023-05-07T05:27:22;100955.69;;;12.00;100.00
61318;BME280;47201;40.428;-8.436;2023-05-07T05:29:23;100952.19;;;12.04;100.00
61318;BME280;47201;40.428;-8.436;2023-05-07T05:31:23;100960.06;;;12.04;100.00
61318;BME280;47201;40.428;-8.436;2023-05-07T05:33:25;100960.94;;;12.01;100.00
61318;BME280;47201;40.428;-8.436;2023-05-07T05:35:25;100960.91;;;12.09;100.00
61318;BME280;47201;40.428;-8.436;2023-05-07T05:37:26;100968.75;;;12.14;100.00
61318;BME280;47201;40.428;-8.436;2023-05-07T05:39:28;100970.50;;;12.12;100.00
61318;BME280;47201;40.428;-8.436;2023-05-07T05:41:28;100961.78;;;12.08;100.00
61318;BME280;47201;40.428;-8.436;2023-05-07T05:43:29;100976.66;;;12.03;100.00
61318;BME280;47201;40.428;-8.436;2023-05-07T05:45:30;100980.13;;;12.08;100.00
61318;BME280;47201;40.428;-8.436;2023-05-07T05:47:31;100986.25;;;12.09;100.00
61318;BME280;47201;40.428;-8.436;2023-05-07T05:49:31;100995.84;;;12.03;100.00
61318;BME280;47201;40.428;-8.436;2023-05-07T05:51:32;100997.59;;;12.00;100.00
61318;BME280;47201;40.428;-8.436;2023-05-07T05:53:34;100991.47;;;11.96;100.00
61318;BME280;47201;40.428;-8.436;2023-05-07T05:55:34;100994.09;;;11.95;100.00
61318;BME280;47201;40.428;-8.436;2023-05-07T05:57:35;101002.88;;;11.97;100.00
61318;BME280;47201;40.428;-8.436;2023-05-07T05:59:36;100999.34;;;11.95;100.00
61318;BME280;47201;40.428;-8.436;2023-05-07T06:01:36;101005.50;;;11.97;100.00
61318;BME280;47201;40.428;-8.436;2023-05-07T06:03:38;101011.59;;;12.05;100.00
61318;BME280;47201;40.428;-8.436;2023-05-07T06:05:44;101017.66;;;12.16;100.00
61318;BME280;47201;40.428;-8.436;2023-05-07T06:07:45;101021.97;;;12.25;100.00
61318;BME280;47201;40.428;-8.436;2023-05-07T06:09:46;101018.47;;;12.34;100.00
61318;BME280;47201;40.428;-8.436;2023-05-07T06:11:47;101016.72;;;12.37;100.00
61318;BME280;47201;40.428;-8.436;2023-05-07T06:13:47;101017.56;;;12.43;100.00
61318;BME280;47201;40.428;-8.436;2023-05-07T06:15:48;101020.13;;;12.53;100.00
61318;BME280;47201;40.428;-8.436;2023-05-07T06:17:49;101012.19;;;12.66;100.00
61318;BME280;47201;40.428;-8.436;2023-05-07T06:19:50;101020.88;;;12.80;100.00
61318;BME280;47201;40.428;-8.436;2023-05-07T06:21:53;101022.56;;;12.94;100.00
61318;BME280;47201;40.428;-8.436;2023-05-07T06:23:53;101019.78;;;13.12;100.00
61318;BME280;47201;40.428;-8.436;2023-05-07T06:25:55;101020.59;;;13.24;100.00
61318;BME280;47201;40.428;-8.436;2023-05-07T06:28:01;101022.25;;;13.34;100.00
61318;BME280;47201;40.428;-8.436;2023-05-07T06:30:01;101029.22;;;13.41;100.00
61318;BME280;47201;40.428;-8.436;2023-05-07T06:32:12;101024.78;;;13.53;100.00
61318;BME280;47201;40.428;-8.436;2023-05-07T06:34:14;101021.16;;;13.63;100.00
61318;BME280;47201;40.428;-8.436;2023-05-07T06:36:15;101022.03;;;13.63;100.00
61318;BME280;47201;40.428;-8.436;2023-05-07T06:38:16;101021.13;;;13.68;100.00
61318;BME280;47201;40.428;-8.436;2023-05-07T06:40:18;101032.56;;;13.62;100.00
61318;BME280;47201;40.428;-8.436;2023-05-07T06:42:20;101031.63;;;13.69;100.00
61318;BME280;47201;40.428;-8.436;2023-05-07T06:44:22;101041.00;;;13.95;100.00
61318;BME280;47201;40.428;-8.436;2023-05-07T06:46:33;101028.38;;;14.28;100.00
61318;BME280;47201;40.428;-8.436;2023-05-07T06:48:33;101039.34;;;14.61;100.00
61318;BME280;47201;40.428;-8.436;2023-05-07T06:50:42;101046.00;;;14.93;100.00
61318;BME280;47201;40.428;-8.436;2023-05-07T06:52:42;101047.22;;;15.30;100.00
61318;BME280;47201;40.428;-8.436;2023-05-07T06:54:43;101054.44;;;15.70;100.00
61318;BME280;47201;40.428;-8.436;2023-05-07T06:56:44;101049.13;;;16.22;100.00
61318;BME280;47201;40.428;-8.436;2023-05-07T06:58:45;101055.13;;;16.74;100.00
61318;BME280;47201;40.428;-8.436;2023-05-07T07:00:46;101049.53;;;17.27;100.00
61318;BME280;47201;40.428;-8.436;2023-05-07T07:02:47;101058.38;;;17.98;98.56
61318;BME280;47201;40.428;-8.436;2023-05-07T07:04:50;101062.22;;;18.79;92.79
61318;BME280;47201;40.428;-8.436;2023-05-07T07:06:54;101065.56;;;19.96;88.52
61318;BME280;47201;40.428;-8.436;2023-05-07T07:08:54;101070.78;;;21.40;79.04
61318;BME280;47201;40.428;-8.436;2023-05-07T07:10:55;101090.66;;;22.57;68.78
61318;BME280;47201;40.428;-8.436;2023-05-07T07:12:56;101092.56;;;23.84;62.64
61318;BME280;47201;40.428;-8.436;2023-05-07T07:14:56;101088.06;;;25.03;58.73
61318;BME280;47201;40.428;-8.436;2023-05-07T07:16:57;101098.22;;;25.91;56.53
61318;BME280;47201;40.428;-8.436;2023-05-07T07:18:58;101095.25;;;26.26;52.55
61318;BME280;47201;40.428;-8.436;2023-05-07T07:20:59;101098.25;;;27.34;50.93
61318;BME280;47201;40.428;-8.436;2023-05-07T07:23:00;101106.22;;;28.29;47.94
61318;BME280;47201;40.428;-8.436;2023-05-07T07:25:01;101107.44;;;28.88;47.42
61318;BME280;47201;40.428;-8.436;2023-05-07T07:27:01;101102.00;;;29.38;48.69
61318;BME280;47201;40.428;-8.436;2023-05-07T07:29:02;101110.41;;;29.57;47.99
61318;BME280;47201;40.428;-8.436;2023-05-07T07:31:03;101107.31;;;29.86;48.16
61318;BME280;47201;40.428;-8.436;2023-05-07T07:33:05;101109.16;;;30.21;47.99
61318;BME280;47201;40.428;-8.436;2023-05-07T07:35:12;101110.38;;;30.97;47.57
61318;BME280;47201;40.428;-8.436;2023-05-07T07:37:13;101114.50;;;31.24;48.38
61318;BME280;47201;40.428;-8.436;2023-05-07T07:39:13;101118.31;;;31.10;49.92
61318;BME280;47201;40.428;-8.436;2023-05-07T07:41:15;101124.03;;;31.72;49.80
61318;BME280;47201;40.428;-8.436;2023-05-07T07:43:16;101131.44;;;32.12;50.21
61318;BME280;47201;40.428;-8.436;2023-05-07T07:45:17;101128.16;;;32.39;51.51
61318;BME280;47201;40.428;-8.436;2023-05-07T07:47:20;101125.78;;;32.77;52.11
61318;BME280;47201;40.428;-8.436;2023-05-07T07:49:22;101132.56;;;33.02;53.08
61318;BME280;47201;40.428;-8.436;2023-05-07T07:51:23;101133.47;;;33.52;53.77
61318;BME280;47201;40.428;-8.436;2023-05-07T07:53:23;101139.63;;;33.34;55.52
61318;BME280;47201;40.428;-8.436;2023-05-07T07:55:24;101137.81;;;32.94;57.92
61318;BME280;47201;40.428;-8.436;2023-05-07T07:57:27;101132.63;;;33.61;58.30
61318;BME280;47201;40.428;-8.436;2023-05-07T07:59:29;101137.88;;;34.12;57.99
61318;BME280;47201;40.428;-8.436;2023-05-07T08:01:29;101140.66;;;34.50;58.15
61318;BME280;47201;40.428;-8.436;2023-05-07T08:03:30;101136.56;;;34.63;58.92
61318;BME280;47201;40.428;-8.436;2023-05-07T08:05:33;101137.59;;;34.62;60.51
61318;BME280;47201;40.428;-8.436;2023-05-07T08:07:34;101145.22;;;34.49;61.42
61318;BME280;47201;40.428;-8.436;2023-05-07T08:09:34;101145.81;;;34.81;61.76
61318;BME280;47201;40.428;-8.436;2023-05-07T08:11:37;101151.28;;;34.23;63.64
61318;BME280;47201;40.428;-8.436;2023-05-07T08:13:41;101151.34;;;33.64;65.95
61318;BME280;47201;40.428;-8.436;2023-05-07T08:15:42;101158.47;;;33.95;66.10
61318;BME280;47201;40.428;-8.436;2023-05-07T08:17:43;101155.56;;;34.26;65.36
61318;BME280;47201;40.428;-8.436;2023-05-07T08:19:43;101165.81;;;34.42;65.37
61318;BME280;47201;40.428;-8.436;2023-05-07T08:21:46;101169.91;;;33.89;67.13
61318;BME280;47201;40.428;-8.436;2023-05-07T08:23:51;101166.72;;;33.74;67.68
61318;BME280;47201;40.428;-8.436;2023-05-07T08:25:52;101167.16;;;33.79;68.18
61318;BME280;47201;40.428;-8.436;2023-05-07T08:27:53;101170.97;;;34.15;67.94
61318;BME280;47201;40.428;-8.436;2023-05-07T08:29:54;101181.28;;;34.02;68.80
61318;BME280;47201;40.428;-8.436;2023-05-07T08:31:56;101177.88;;;33.90;69.44
61318;BME280;47201;40.428;-8.436;2023-05-07T08:33:57;101176.81;;;34.30;68.71
61318;BME280;47201;40.428;-8.436;2023-05-07T08:35:57;101180.50;;;35.15;67.89
61318;BME280;47201;40.428;-8.436;2023-05-07T08:37:58;101169.16;;;35.47;67.32
61318;BME280;47201;40.428;-8.436;2023-05-07T08:39:59;101173.06;;;34.89;68.59
61318;BME280;47201;40.428;-8.436;2023-05-07T08:42:05;101180.47;;;34.97;69.07
61318;BME280;47201;40.428;-8.436;2023-05-07T08:44:11;101165.91;;;34.50;70.34
61318;BME280;47201;40.428;-8.436;2023-05-07T08:46:12;101164.38;;;35.13;68.89
61318;BME280;47201;40.428;-8.436;2023-05-07T08:48:17;101169.31;;;33.85;71.98
61318;BME280;47201;40.428;-8.436;2023-05-07T08:50:22;101169.84;;;32.79;74.49
61318;BME280;47201;40.428;-8.436;2023-05-07T08:52:24;101163.53;;;32.48;74.88
61318;BME280;47201;40.428;-8.436;2023-05-07T08:54:25;101164.59;;;31.05;77.76
61318;BME280;47201;40.428;-8.436;2023-05-07T08:56:26;101164.78;;;31.36;77.57
61318;BME280;47201;40.428;-8.436;2023-05-07T08:58:28;101166.03;;;31.21;77.91
61318;BME280;47201;40.428;-8.436;2023-05-07T09:00:29;101174.09;;;32.51;75.01
61318;BME280;47201;40.428;-8.436;2023-05-07T09:02:31;101163.81;;;33.16;74.17
61318;BME280;47201;40.428;-8.436;2023-05-07T09:04:32;101170.41;;;34.12;72.12
61318;BME280;47201;40.428;-8.436;2023-05-07T09:06:33;101161.06;;;34.82;70.79
61318;BME280;47201;40.428;-8.436;2023-05-07T09:08:34;101167.09;;;34.75;70.99
61318;BME280;47201;40.428;-8.436;2023-05-07T09:10:37;101180.66;;;35.59;70.03
61318;BME280;47201;40.428;-8.436;2023-05-07T09:12:42;101174.13;;;35.06;70.92
61318;BME280;47201;40.428;-8.436;2023-05-07T09:14:45;101176.22;;;35.40;70.27
61318;BME280;47201;40.428;-8.436;2023-05-07T09:16:46;101182.84;;;34.72;71.38
61318;BME280;47201;40.428;-8.436;2023-05-07T09:18:48;101181.03;;;33.95;73.39
61318;BME280;47201;40.428;-8.436;2023-05-07T09:20:50;101184.22;;;34.86;71.77
61318;BME280;47201;40.428;-8.436;2023-05-07T09:22:55;101184.13;;;35.33;70.79
61318;BME280;47201;40.428;-8.436;2023-05-07T09:24:55;101177.72;;;35.24;71.63
61318;BME280;47201;40.428;-8.436;2023-05-07T09:26:59;101188.56;;;36.33;69.67
61318;BME280;47201;40.428;-8.436;2023-05-07T09:29:01;101188.72;;;35.69;70.65
61318;BME280;47201;40.428;-8.436;2023-05-07T09:31:03;101195.13;;;34.19;72.94
61318;BME280;47201;40.428;-8.436;2023-05-07T09:33:04;101190.41;;;33.52;74.82
61318;BME280;47201;40.428;-8.436;2023-05-07T09:35:14;101183.22;;;32.81;76.41
61318;BME280;47201;40.428;-8.436;2023-05-07T09:37:15;101182.75;;;32.45;77.25
61318;BME280;47201;40.428;-8.436;2023-05-07T09:39:15;101182.22;;;33.22;75.99
61318;BME280;47201;40.428;-8.436;2023-05-07T09:41:16;101189.81;;;33.38;75.40
61318;BME280;47201;40.428;-8.436;2023-05-07T09:43:37;101181.75;;;32.77;76.51
61318;BME280;47201;40.428;-8.436;2023-05-07T09:45:39;101177.00;;;32.69;77.16
61318;BME280;47201;40.428;-8.436;2023-05-07T09:47:42;101175.75;;;31.23;79.75
61318;BME280;47201;40.428;-8.436;2023-05-07T09:49:46;101181.53;;;30.73;81.10
61318;BME280;47201;40.428;-8.436;2023-05-07T09:51:50;101183.97;;;30.06;82.79
61318;BME280;47201;40.428;-8.436;2023-05-07T09:53:52;101185.81;;;30.64;82.28
61318;BME280;47201;40.428;-8.436;2023-05-07T09:55:53;101190.81;;;29.75;83.28
61318;BME280;47201;40.428;-8.436;2023-05-07T09:57:54;101192.13;;;28.82;85.19
61318;BME280;47201;40.428;-8.436;2023-05-07T09:59:56;101179.22;;;27.40;88.58
61318;BME280;47201;40.428;-8.436;2023-05-07T10:01:59;101183.22;;;27.20;88.95
61318;BME280;47201;40.428;-8.436;2023-05-07T10:04:01;101188.94;;;26.42;90.76
61318;BME280;47201;40.428;-8.436;2023-05-07T10:06:02;101184.28;;;27.03;89.30
61318;BME280;47201;40.428;-8.436;2023-05-07T10:08:04;101187.41;;;28.86;85.06
61318;BME280;47201;40.428;-8.436;2023-05-07T10:10:06;101200.59;;;30.36;80.74
61318;BME280;47201;40.428;-8.436;2023-05-07T10:12:11;101199.41;;;31.42;78.14
61318;BME280;47201;40.428;-8.436;2023-05-07T10:14:12;101204.31;;;32.87;74.92
61318;BME280;47201;40.428;-8.436;2023-05-07T10:16:15;101205.22;;;32.45;75.27
61318;BME280;47201;40.428;-8.436;2023-05-07T10:18:21;101207.63;;;32.69;75.15
61318;BME280;47201;40.428;-8.436;2023-05-07T10:20:33;101203.66;;;32.42;75.45
61318;BME280;47201;40.428;-8.436;2023-05-07T10:22:43;101205.00;;;31.62;77.38